Time;durP1;ratioP1;P1;durP2;ratioP2;P2;SDS_P1;SDS_P2;PMS_P1;PMS_P2;Temp;Humidity;BMP_temperature;BMP_pressure;BME280_temperature;BME280_humidity;BME280_pressure;Samples;Min_cycle;Max_cycle;Signal;HPM_P1;HPM_P2
2022/03/03 00:01:17;;;;;;;78.90;44.05;;;3.30;99.90;;;;;;5092129;28;20112;-61
2022/03/03 00:03:42;;;;;;;74.82;43.53;;;3.20;99.90;;;;;;5092990;28;20043;-60
2022/03/03 00:06:08;;;;;;;84.35;44.22;;;3.20;99.90;;;;;;5093255;28;20040;-61
2022/03/03 00:08:34;;;;;;;80.30;43.13;;;3.20;99.90;;;;;;5092917;28;20044;-61
2022/03/03 00:10:59;;;;;;;77.03;42.58;;;3.10;99.90;;;;;;5092920;28;20043;-59
2022/03/03 00:13:25;;;;;;;82.45;42.78;;;3.10;99.90;;;;;;5092767;28;20086;-59
2022/03/03 00:15:51;;;;;;;77.90;42.42;;;3.10;99.90;;;;;;5092687;28;20046;-59
2022/03/03 00:18:16;;;;;;;78.15;43.97;;;3.10;99.90;;;;;;5092245;28;20377;-59
2022/03/03 00:20:42;;;;;;;83.88;43.97;;;3.10;99.90;;;;;;5092784;28;20040;-59
2022/03/03 00:23:08;;;;;;;76.53;42.35;;;3.10;99.90;;;;;;5092873;28;20436;-59
2022/03/03 00:25:34;;;;;;;73.53;42.42;;;3.00;99.90;;;;;;5093041;28;20122;-59
2022/03/03 00:28:03;;;;;;;76.72;43.47;;;3.00;99.90;;;;;;5092469;28;20040;-59
2022/03/03 00:30:28;;;;;;;;;;;3.00;99.90;;;;;;5093075;28;20043;-59
2022/03/03 00:32:54;;;;;;;80.28;41.80;;;3.00;99.90;;;;;;5092976;28;20376;-58
2022/03/03 00:35:19;;;;;;;78.40;42.30;;;3.00;99.90;;;;;;5091805;28;20910;-59
2022/03/03 00:37:45;;;;;;;77.22;41.25;;;3.00;99.90;;;;;;5091418;28;20071;-59
2022/03/03 00:40:12;;;;;;;77.10;42.15;;;2.90;99.90;;;;;;5092383;28;20078;-59
2022/03/03 00:42:38;;;;;;;76.57;41.45;;;2.90;99.90;;;;;;5092374;28;20040;-59
2022/03/03 00:45:05;;;;;;;77.40;42.90;;;2.90;99.90;;;;;;5092336;28;20035;-59
2022/03/03 00:47:32;;;;;;;80.18;43.05;;;2.90;99.90;;;;;;5092457;28;20068;-59
2022/03/03 00:49:58;;;;;;;76.90;42.25;;;2.80;99.90;;;;;;5092322;28;20437;-59
2022/03/03 00:52:23;;;;;;;79.35;43.55;;;2.80;99.90;;;;;;5092202;28;20072;-59
2022/03/03 00:54:49;;;;;;;78.55;42.50;;;2.80;99.90;;;;;;5090988;28;20044;-60
2022/03/03 00:57:15;;;;;;;76.47;42.40;;;2.70;99.90;;;;;;5092119;28;20048;-59
2022/03/03 00:59:41;;;;;;;84.32;43.40;;;2.70;99.90;;;;;;5090891;28;20047;-59
2022/03/03 01:02:07;;;;;;;80.38;41.63;;;2.70;99.90;;;;;;5092164;28;20071;-60
2022/03/03 01:04:32;;;;;;;76.43;42.20;;;2.60;99.90;;;;;;5092143;28;20036;-61
2022/03/03 01:06:58;;;;;;;73.75;40.05;;;2.60;99.90;;;;;;5090885;28;20097;-60
2022/03/03 01:09:24;;;;;;;72.63;40.67;;;2.60;99.90;;;;;;5091888;28;20039;-61
2022/03/03 01:11:49;;;;;;;68.85;39.22;;;2.60;99.90;;;;;;5092219;28;20161;-60
2022/03/03 01:14:21;;;;;;;71.72;40.88;;;2.60;99.90;;;;;;5091778;28;20475;-60
2022/03/03 01:16:47;;;;;;;73.60;40.40;;;2.60;99.90;;;;;;5092360;28;20397;-60
2022/03/03 01:19:13;;;;;;;71.50;39.35;;;2.50;99.90;;;;;;5091758;28;20048;-60
2022/03/03 01:21:39;;;;;;;69.78;40.78;;;2.50;99.90;;;;;;5092151;28;20402;-61
2022/03/03 01:24:05;;;;;;;74.93;40.15;;;2.50;99.90;;;;;;5092001;28;20125;-60
2022/03/03 01:26:31;;;;;;;73.85;41.63;;;2.50;99.90;;;;;;5091839;28;20032;-59
2022/03/03 01:28:56;;;;;;;70.63;39.22;;;2.40;99.90;;;;;;5091550;28;20555;-59
2022/03/03 01:31:22;;;;;;;69.82;40.13;;;2.40;99.90;;;;;;5091795;28;20036;-59
2022/03/03 01:33:48;;;;;;;70.75;39.72;;;2.40;99.90;;;;;;5090416;28;20051;-60
2022/03/03 01:36:13;;;;;;;73.50;40.67;;;2.40;99.90;;;;;;5092291;28;20435;-60
2022/03/03 01:38:39;;;;;;;72.63;40.00;;;2.30;99.90;;;;;;5091782;28;20037;-59
2022/03/03 01:41:05;;;;;;;71.03;38.97;;;2.20;99.90;;;;;;5092479;28;20044;-59
2022/03/03 01:43:30;;;;;;;76.22;40.63;;;2.20;99.90;;;;;;5095718;28;20036;-60
2022/03/03 01:45:56;;;;;;;67.65;39.13;;;2.20;99.90;;;;;;5095706;28;20118;-59
2022/03/03 01:48:22;;;;;;;63.60;38.70;;;2.10;99.90;;;;;;5095651;28;20111;-59
2022/03/03 01:50:49;;;;;;;73.10;39.70;;;2.20;99.90;;;;;;5095726;28;20094;-59
2022/03/03 01:53:15;;;;;;;67.68;39.00;;;2.10;99.90;;;;;;5095643;28;20205;-60
2022/03/03 01:55:41;;;;;;;66.65;37.90;;;2.10;99.90;;;;;;5095203;28;20473;-60
2022/03/03 01:58:07;;;;;;;68.82;39.15;;;2.10;99.90;;;;;;5095328;28;20036;-61
2022/03/03 02:00:32;;;;;;;66.15;37.72;;;2.10;99.90;;;;;;5095291;28;20040;-61
2022/03/03 02:03:00;;;;;;;69.15;38.85;;;2.10;99.90;;;;;;5095416;28;20057;-61
2022/03/03 02:05:27;;;;;;;68.55;38.75;;;2.10;99.90;;;;;;5095851;28;20097;-61
2022/03/03 02:07:53;;;;;;;69.28;37.85;;;2.10;99.90;;;;;;5095354;28;20036;-61
2022/03/03 02:10:18;;;;;;;65.57;36.65;;;2.10;99.90;;;;;;5095335;28;20100;-61
2022/03/03 02:12:44;;;;;;;60.97;35.75;;;2.20;99.90;;;;;;5095050;28;20478;-61
2022/03/03 02:15:17;;;;;;;68.25;37.55;;;2.10;99.90;;;;;;5095406;28;20047;-61
2022/03/03 02:17:43;;;;;;;63.47;36.10;;;2.10;99.90;;;;;;5094994;28;20115;-61
2022/03/03 02:20:24;;;;;;;64.50;36.60;;;2.10;99.90;;;;;;5094893;28;20060;-61
2022/03/03 02:22:51;;;;;;;59.25;35.45;;;2.10;99.90;;;;;;5094858;28;20079;-61
2022/03/03 02:25:17;;;;;;;63.53;36.90;;;2.10;99.90;;;;;;5094979;28;20111;-61
2022/03/03 02:27:44;;;;;;;64.40;35.70;;;2.10;99.90;;;;;;5095077;28;20032;-61
2022/03/03 02:30:11;;;;;;;62.67;35.38;;;2.10;99.90;;;;;;5093687;28;20040;-61
2022/03/03 02:32:37;;;;;;;65.00;36.95;;;2.10;99.90;;;;;;5094715;28;20039;-61
2022/03/03 02:35:03;;;;;;;59.47;35.03;;;2.10;99.90;;;;;;5095125;28;20398;-61
2022/03/03 02:37:37;;;;;;;59.28;35.67;;;2.00;99.90;;;;;;5095172;28;20054;-61
2022/03/03 02:40:05;;;;;;;62.88;35.30;;;2.00;99.90;;;;;;5094752;28;20044;-61
2022/03/03 02:42:30;;;;;;;64.50;36.38;;;2.00;99.90;;;;;;5094517;28;20036;-62
2022/03/03 02:44:56;;;;;;;65.53;37.58;;;1.80;99.90;;;;;;5094744;28;20390;-61
2022/03/03 02:47:22;;;;;;;58.08;35.85;;;1.80;99.90;;;;;;5094409;28;20038;-61
2022/03/03 02:49:47;;;;;;;69.03;37.28;;;1.80;99.90;;;;;;5094589;28;20036;-61
2022/03/03 02:52:13;;;;;;;60.08;36.55;;;1.80;99.90;;;;;;5093800;28;20051;-61
2022/03/03 02:54:39;;;;;;;61.90;34.55;;;1.80;99.90;;;;;;5094802;28;20044;-61
2022/03/03 03:00:06;;;;;;;72.00;37.03;;;1.80;99.90;;;;;;5031775;28;20046;-62
2022/03/03 03:02:32;;;;;;;65.85;35.60;;;1.80;99.90;;;;;;5031724;28;20450;-59
2022/03/03 03:04:57;;;;;;;65.68;36.90;;;1.80;99.90;;;;;;5031832;28;20034;-60
2022/03/03 03:07:23;;;;;;;64.35;36.13;;;1.80;99.90;;;;;;5031803;28;20132;-59
2022/03/03 03:09:48;;;;;;;70.32;36.85;;;1.70;99.90;;;;;;5031730;28;20133;-60
2022/03/03 03:12:14;;;;;;;62.90;36.58;;;1.70;99.90;;;;;;5031695;28;20041;-61
2022/03/03 03:14:39;;;;;;;59.92;36.35;;;1.70;99.90;;;;;;5031883;28;20446;-61
2022/03/03 03:17:05;;;;;;;61.47;36.17;;;1.60;99.90;;;;;;5031500;28;20115;-61
2022/03/03 03:19:31;;;;;;;56.47;34.97;;;1.60;99.90;;;;;;5031234;28;20081;-60
2022/03/03 03:21:59;;;;;;;68.55;37.47;;;1.50;99.90;;;;;;5031880;28;20085;-62
2022/03/03 03:24:24;;;;;;;66.68;37.15;;;1.50;99.90;;;;;;5031570;28;20099;-61
2022/03/03 03:26:50;;;;;;;64.65;37.20;;;1.50;99.90;;;;;;5031770;28;20057;-62
2022/03/03 03:29:15;;;;;;;64.07;38.03;;;1.50;99.90;;;;;;5031412;28;20049;-62
2022/03/03 03:31:41;;;;;;;66.55;38.08;;;1.50;99.90;;;;;;5031329;28;20120;-61
2022/03/03 03:34:06;;;;;;;64.95;36.80;;;1.40;99.90;;;;;;5064079;28;20054;-61
2022/03/03 03:36:32;;;;;;;64.57;36.90;;;1.40;99.90;;;;;;5093863;28;20085;-61
2022/03/03 03:38:58;;;;;;;65.97;35.80;;;1.40;99.90;;;;;;5092063;28;20390;-61
2022/03/03 03:41:23;;;;;;;59.30;36.03;;;1.40;99.90;;;;;;5092147;28;20047;-62
2022/03/03 03:43:49;;;;;;;64.65;36.95;;;1.40;99.90;;;;;;5093132;28;20039;-62
2022/03/03 03:46:14;;;;;;;66.13;36.33;;;1.40;99.90;;;;;;5093318;28;20039;-62
2022/03/03 03:48:40;;;;;;;66.75;36.33;;;1.40;99.90;;;;;;5093196;28;20063;-61
2022/03/03 03:51:06;;;;;;;64.18;36.63;;;1.40;99.90;;;;;;5093320;28;20032;-61
2022/03/03 03:53:31;;;;;;;61.65;34.83;;;1.40;99.90;;;;;;5093078;28;20064;-61
2022/03/03 03:55:57;;;;;;;63.88;35.38;;;1.40;99.90;;;;;;5091912;28;20075;-61
2022/03/03 03:58:23;;;;;;;62.72;35.08;;;1.40;99.90;;;;;;5091838;28;20040;-61
2022/03/03 04:00:48;;;;;;;63.45;35.90;;;1.40;99.90;;;;;;5093298;28;20054;-59
2022/03/03 04:03:14;;;;;;;56.88;32.42;;;1.40;99.90;;;;;;5092473;28;20036;-61
2022/03/03 04:05:40;;;;;;;61.35;33.65;;;1.40;99.90;;;;;;5093584;28;20504;-60
2022/03/03 04:08:05;;;;;;;57.00;34.10;;;1.50;99.90;;;;;;5093277;28;20478;-60
2022/03/03 04:10:31;;;;;;;55.47;34.33;;;1.50;99.90;;;;;;5093039;28;20032;-60
2022/03/03 04:12:58;;;;;;;56.88;33.88;;;1.50;99.90;;;;;;5093004;28;20043;-60
2022/03/03 04:15:24;;;;;;;55.67;32.58;;;1.50;99.90;;;;;;5093127;28;20040;-60
2022/03/03 04:17:50;;;;;;;54.10;33.35;;;1.50;99.90;;;;;;5092693;28;20054;-60
2022/03/03 04:20:15;;;;;;;54.75;32.75;;;1.50;99.90;;;;;;5092274;28;20490;-61
2022/03/03 04:22:41;;;;;;;59.55;35.05;;;1.50;99.90;;;;;;5092842;28;20048;-60
2022/03/03 04:25:10;;;;;;;58.50;34.55;;;1.50;99.90;;;;;;5092568;28;20517;-60
2022/03/03 04:27:40;;;;;;;58.58;33.33;;;1.50;99.90;;;;;;5092679;28;20173;-60
2022/03/03 04:30:09;;;;;;;52.85;32.50;;;1.50;99.90;;;;;;5092638;28;20101;-60
2022/03/03 04:32:35;;;;;;;57.67;34.30;;;1.50;99.90;;;;;;5092465;28;20474;-60
2022/03/03 04:35:01;;;;;;;60.42;33.97;;;1.50;99.90;;;;;;5092708;28;20044;-60
2022/03/03 04:37:27;;;;;;;54.25;33.47;;;1.50;99.90;;;;;;5090735;28;20054;-60
2022/03/03 04:39:52;;;;;;;59.60;33.92;;;1.40;99.90;;;;;;5092490;28;20123;-60
2022/03/03 04:42:18;;;;;;;51.17;33.53;;;1.40;99.90;;;;;;5092280;28;20646;-60
2022/03/03 04:44:44;;;;;;;56.97;33.15;;;1.40;99.90;;;;;;5092369;28;20028;-60
2022/03/03 04:47:09;;;;;;;52.58;31.60;;;1.30;99.90;;;;;;5092350;28;20036;-60
2022/03/03 04:49:35;;;;;;;55.95;33.10;;;1.30;99.90;;;;;;5092426;28;20075;-60
2022/03/03 04:52:00;;;;;;;55.33;33.45;;;1.30;99.90;;;;;;5092478;28;20115;-60
2022/03/03 04:54:26;;;;;;;52.92;32.08;;;1.30;99.90;;;;;;5092088;28;20085;-59
2022/03/03 04:56:54;;;;;;;55.17;32.42;;;1.30;99.90;;;;;;5092234;28;20040;-61
2022/03/03 04:59:20;;;;;;;50.85;31.08;;;1.30;99.90;;;;;;5092396;28;20037;-61
2022/03/03 05:01:46;;;;;;;57.53;31.63;;;1.30;99.90;;;;;;5092147;28;20094;-60
2022/03/03 05:04:11;;;;;;;52.67;30.98;;;1.30;99.90;;;;;;5091933;28;20482;-60
2022/03/03 05:06:37;;;;;;;55.10;32.20;;;1.30;99.90;;;;;;5091869;28;20036;-60
2022/03/03 05:09:03;;;;;;;47.70;28.92;;;1.30;99.90;;;;;;5090669;28;20083;-60
2022/03/03 05:11:29;;;;;;;53.72;30.60;;;1.30;99.90;;;;;;5092083;28;20044;-60
2022/03/03 05:13:55;;;;;;;56.25;33.90;;;1.30;99.90;;;;;;5090478;28;20046;-60
2022/03/03 05:16:20;;;;;;;53.50;31.00;;;1.30;99.90;;;;;;5092158;28;20385;-60
2022/03/03 05:18:46;;;;;;;49.65;31.40;;;1.30;99.90;;;;;;5091565;28;20079;-60
2022/03/03 05:21:12;;;;;;;51.00;32.13;;;1.30;99.90;;;;;;5091976;28;20107;-60
2022/03/03 05:23:38;;;;;;;53.05;31.67;;;1.30;99.90;;;;;;5090644;28;20039;-60
2022/03/03 05:26:03;;;;;;;56.65;32.75;;;1.20;99.90;;;;;;5091844;28;20032;-61
2022/03/03 05:28:29;;;;;;;55.60;31.30;;;1.20;99.90;;;;;;5091510;28;20044;-60
2022/03/03 05:30:54;;;;;;;49.50;30.27;;;1.20;99.90;;;;;;5092039;28;20040;-60
2022/03/03 05:33:20;;;;;;;50.60;31.23;;;1.20;99.90;;;;;;5091595;28;20063;-60
2022/03/03 05:35:48;;;;;;;52.10;31.67;;;1.20;99.90;;;;;;5091957;28;20044;-60
2022/03/03 05:38:14;;;;;;;54.60;30.73;;;1.10;99.90;;;;;;5091920;28;20036;-60
2022/03/03 05:40:40;;;;;;;53.95;31.77;;;1.10;99.90;;;;;;5091851;28;20566;-60
2022/03/03 05:43:09;;;;;;;54.70;33.13;;;1.10;99.90;;;;;;5091471;28;20119;-60
2022/03/03 05:45:35;;;;;;;55.80;31.33;;;1.10;99.90;;;;;;5091778;28;20044;-60
2022/03/03 05:48:01;;;;;;;52.33;31.15;;;1.10;99.90;;;;;;5091654;28;20038;-60
2022/03/03 05:50:27;;;;;;;56.97;32.17;;;1.00;99.90;;;;;;5091534;28;20051;-60
2022/03/03 05:52:54;;;;;;;55.55;32.53;;;1.00;99.90;;;;;;5091488;28;20040;-60
2022/03/03 05:55:20;;;;;;;56.15;33.00;;;1.00;99.90;;;;;;5091595;28;20039;-60
2022/03/03 05:57:53;;;;;;;51.45;31.38;;;0.90;99.90;;;;;;5089506;28;20391;-60
2022/03/03 06:00:18;;;;;;;53.58;31.77;;;1.00;99.90;;;;;;5091534;28;20083;-60
2022/03/03 06:02:52;;;;;;;53.85;31.38;;;0.90;99.90;;;;;;5091363;28;20036;-60
2022/03/03 06:05:28;;;;;;;57.38;33.20;;;0.90;99.90;;;;;;5091533;28;20093;-60
2022/03/03 06:08:05;;;;;;;57.05;32.17;;;0.90;99.90;;;;;;5091372;28;20044;-60
2022/03/03 06:10:35;;;;;;;58.55;32.78;;;0.90;99.90;;;;;;5091441;28;20123;-60
2022/03/03 06:13:23;;;;;;;53.42;31.75;;;0.90;99.90;;;;;;5091422;28;20043;-60
2022/03/03 06:15:50;;;;;;;52.03;31.40;;;0.90;99.90;;;;;;5091310;28;20040;-59
2022/03/03 06:18:27;;;;;;;51.15;29.95;;;0.80;99.90;;;;;;5090907;28;20450;-61
2022/03/03 06:20:54;;;;;;;60.17;31.90;;;0.80;99.90;;;;;;5091112;28;20127;-61
2022/03/03 06:23:20;;;;;;;57.70;33.92;;;0.80;99.90;;;;;;5091336;28;20123;-61
2022/03/03 06:26:03;;;;;;;52.03;32.63;;;0.90;99.90;;;;;;5091184;28;20032;-61
2022/03/03 06:28:29;;;;;;;53.42;31.20;;;0.80;99.90;;;;;;5093845;28;20047;-61
2022/03/03 06:30:55;;;;;;;54.70;32.60;;;0.80;99.90;;;;;;5095196;28;20036;-61
2022/03/03 06:33:20;;;;;;;57.05;32.80;;;0.90;99.90;;;;;;5094757;28;20060;-61
2022/03/03 06:35:46;;;;;;;60.67;32.03;;;0.80;99.90;;;;;;5094813;28;20044;-59
2022/03/03 06:38:11;;;;;;;53.85;32.40;;;0.80;99.90;;;;;;5094996;28;20084;-59
2022/03/03 06:40:38;;;;;;;58.47;33.53;;;0.80;99.90;;;;;;5094665;28;20036;-59
2022/03/03 06:43:04;;;;;;;56.72;31.85;;;0.90;99.90;;;;;;5094749;28;20032;-59
2022/03/03 06:45:31;;;;;;;55.90;33.10;;;0.90;99.90;;;;;;5094605;28;20039;-59
2022/03/03 06:48:00;;;;;;;59.20;34.67;;;0.90;99.90;;;;;;5094756;28;20040;-59
2022/03/03 06:50:26;;;;;;;53.80;34.35;;;0.90;99.90;;;;;;5094965;28;20036;-59
2022/03/03 06:52:52;;;;;;;56.75;34.78;;;0.90;99.90;;;;;;5094922;28;20398;-58
2022/03/03 06:55:23;;;;;;;59.03;34.92;;;1.00;99.90;;;;;;5095060;28;20114;-59
2022/03/03 06:57:50;;;;;;;53.72;33.22;;;1.10;99.90;;;;;;5094511;28;20202;-59
2022/03/03 07:00:20;;;;;;;55.08;32.92;;;1.10;99.90;;;;;;5094571;28;20131;-59
2022/03/03 07:02:47;;;;;;;;;;;1.10;99.90;;;;;;5094896;28;20470;-59
2022/03/03 07:05:16;;;;;;;63.33;35.35;;;1.20;99.90;;;;;;5093478;28;19916;-59
2022/03/03 07:07:43;;;;;;;;;;;1.30;99.90;;;;;;5095036;28;20040;-57
2022/03/03 07:10:10;;;;;;;61.78;33.88;;;1.30;99.90;;;;;;5094319;28;20370;-57
2022/03/03 07:12:36;;;;;;;57.90;33.78;;;1.40;99.90;;;;;;5094438;28;20046;-57
2022/03/03 07:15:02;;;;;;;62.00;35.88;;;1.50;99.90;;;;;;5094426;28;20541;-58
2022/03/03 07:17:51;;;;;;;62.35;34.28;;;1.50;99.90;;;;;;5092675;28;20040;-58
2022/03/03 07:20:35;;;;;;;58.80;34.15;;;1.60;99.90;;;;;;5093969;28;20367;-58
2022/03/03 07:23:04;;;;;;;59.03;34.65;;;1.70;99.90;;;;;;5093751;28;20032;-58
2022/03/03 07:25:43;;;;;;;60.72;35.30;;;1.70;99.90;;;;;;5091995;28;20050;-59
2022/03/03 07:28:11;;;;;;;66.13;36.53;;;1.80;99.90;;;;;;5093924;28;20044;-58
2022/03/03 07:30:42;;;;;;;56.80;33.78;;;1.80;99.90;;;;;;5093674;28;20043;-59
2022/03/03 07:33:17;;;;;;;64.97;35.95;;;1.90;99.90;;;;;;5093704;28;20077;-59
2022/03/03 07:35:48;;;;;;;60.10;34.30;;;2.10;99.90;;;;;;5093619;28;20493;-57
2022/03/03 07:38:23;;;;;;;61.92;35.17;;;2.20;99.90;;;;;;5093838;28;20398;-57
2022/03/03 07:40:49;;;;;;;58.17;34.40;;;2.40;99.90;;;;;;5091594;28;20063;-57
2022/03/03 07:43:16;;;;;;;56.88;34.00;;;2.70;99.90;;;;;;5092102;28;20048;-57
2022/03/03 07:45:43;;;;;;;52.70;32.97;;;3.10;99.90;;;;;;5093357;28;20115;-57
2022/03/03 07:48:10;;;;;;;55.40;33.92;;;3.40;99.90;;;;;;5093271;28;20074;-57
2022/03/03 07:50:39;;;;;;;58.45;34.00;;;3.70;99.90;;;;;;5093307;28;20040;-57
2022/03/03 07:53:14;;;;;;;62.03;34.63;;;3.80;99.90;;;;;;5093614;28;20059;-58
2022/03/03 07:55:44;;;;;;;55.53;34.13;;;4.20;99.90;;;;;;5093328;28;20096;-57
2022/03/03 07:58:21;;;;;;;58.78;33.58;;;4.40;99.90;;;;;;5093105;28;20494;-58
2022/03/03 08:00:49;;;;;;;51.78;32.10;;;4.70;99.90;;;;;;5093282;28;20044;-58
2022/03/03 08:03:17;;;;;;;53.10;32.08;;;5.00;99.90;;;;;;5093032;28;20039;-57
2022/03/03 08:05:45;;;;;;;59.17;33.58;;;5.30;99.90;;;;;;5092987;28;20473;-59
2022/03/03 08:08:14;;;;;;;55.42;32.30;;;5.10;99.90;;;;;;5091632;28;20071;-58
2022/03/03 08:10:44;;;;;;;52.28;32.08;;;5.30;99.90;;;;;;5093049;28;20105;-59
2022/03/03 08:13:13;;;;;;;53.30;32.08;;;5.60;99.90;;;;;;5092818;28;20036;-58
2022/03/03 08:15:40;;;;;;;51.38;32.70;;;5.80;99.90;;;;;;5093050;28;20089;-58
2022/03/03 08:18:07;;;;;;;47.83;30.48;;;5.80;99.90;;;;;;5092615;28;20611;-59
2022/03/03 08:20:34;;;;;;;50.35;31.05;;;6.00;99.90;;;;;;5092852;28;20454;-58
2022/03/03 08:23:01;;;;;;;47.35;29.65;;;6.30;99.90;;;;;;5092747;28;20079;-58
2022/03/03 08:25:27;;;;;;;47.45;31.67;;;6.60;99.90;;;;;;5091278;28;20040;-58
2022/03/03 08:27:54;;;;;;;43.95;29.42;;;7.00;99.90;;;;;;5091323;28;20475;-59
2022/03/03 08:30:22;;;;;;;46.10;29.75;;;7.40;99.90;;;;;;5092767;28;20044;-58
2022/03/03 08:33:19;;;;;;;43.80;28.38;;;7.60;99.90;;;;;;5092548;28;20040;-58
2022/03/03 08:35:55;;;;;;;41.08;27.65;;;7.80;99.90;;;;;;5092024;28;20127;-58
2022/03/03 08:38:51;;;;;;;44.45;28.02;;;8.20;99.90;;;;;;5092572;28;20043;-59
2022/03/03 08:41:22;;;;;;;37.50;26.17;;;8.30;99.90;;;;;;5092769;28;20119;-58
2022/03/03 08:43:52;;;;;;;40.80;26.58;;;8.30;99.90;;;;;;5091013;28;20039;-58
2022/03/03 08:46:25;;;;;;;37.95;26.13;;;8.90;99.90;;;;;;5092305;28;20047;-58
2022/03/03 08:48:53;;;;;;;37.88;26.02;;;8.80;99.90;;;;;;5092231;28;20036;-58
2022/03/03 08:51:19;;;;;;;39.00;25.67;;;8.90;99.90;;;;;;5092204;28;20068;-59
2022/03/03 08:53:46;;;;;;;37.17;25.73;;;8.80;99.90;;;;;;5092481;28;20044;-58
2022/03/03 08:56:12;;;;;;;36.97;24.88;;;8.90;99.90;;;;;;5092374;28;20130;-59
2022/03/03 08:58:38;;;;;;;39.03;25.67;;;9.10;99.90;;;;;;5092300;28;20486;-59
2022/03/03 09:01:03;;;;;;;34.72;25.02;;;9.50;99.90;;;;;;5092001;28;20043;-58
2022/03/03 09:03:29;;;;;;;36.47;25.17;;;9.70;99.90;;;;;;5107389;28;20051;-59
2022/03/03 09:05:56;;;;;;;37.25;24.58;;;9.60;99.90;;;;;;5091961;28;20036;-59
2022/03/03 09:08:23;;;;;;;35.72;25.60;;;9.80;99.90;;;;;;5092113;28;20067;-59
2022/03/03 09:10:49;;;;;;;36.00;25.20;;;9.80;99.90;;;;;;5091892;28;20508;-59
2022/03/03 09:13:15;;;;;;;35.65;25.95;;;9.80;99.90;;;;;;5091979;28;20044;-58
2022/03/03 09:15:41;;;;;;;39.78;25.50;;;9.80;99.90;;;;;;5091788;28;20044;-58
2022/03/03 09:18:07;;;;;;;39.42;26.25;;;10.10;99.90;;;;;;5091942;28;20032;-59
2022/03/03 09:20:33;;;;;;;36.33;25.67;;;10.10;99.90;;;;;;5091506;28;20052;-59
2022/03/03 09:22:59;;;;;;;36.88;25.65;;;10.20;99.90;;;;;;5092185;28;20040;-58
2022/03/03 09:25:25;;;;;;;38.85;25.02;;;10.50;99.90;;;;;;5091670;28;20040;-59
2022/03/03 09:27:51;;;;;;;37.50;26.17;;;10.30;99.90;;;;;;5091830;28;20043;-59
2022/03/03 09:30:18;;;;;;;37.33;25.70;;;10.10;99.90;;;;;;5091690;28;20032;-59
2022/03/03 09:32:44;;;;;;;33.70;25.67;;;10.40;99.90;;;;;;5091735;28;20040;-59
2022/03/03 09:35:10;;;;;;;39.63;27.20;;;10.40;99.90;;;;;;5091897;28;20044;-59
2022/03/03 09:37:37;;;;;;;36.17;25.33;;;10.00;99.90;;;;;;5091641;28;20036;-58
2022/03/03 09:40:04;;;;;;;36.03;26.33;;;10.30;99.90;;;;;;5091679;28;20036;-59
2022/03/03 09:42:33;;;;;;;35.15;25.63;;;10.50;99.90;;;;;;5091726;28;20440;-58
2022/03/03 09:45:00;;;;;;;36.22;25.38;;;10.70;99.90;;;;;;5091823;28;20044;-59
2022/03/03 09:47:26;;;;;;;32.72;24.60;;;10.80;99.90;;;;;;5091502;28;20062;-58
2022/03/03 09:49:52;;;;;;;35.40;23.90;;;10.60;99.90;;;;;;5091565;28;20474;-58
2022/03/03 09:52:19;;;;;;;33.80;24.52;;;10.80;99.90;;;;;;5090592;28;20040;-58
2022/03/03 09:54:49;;;;;;;34.65;23.75;;;10.80;99.90;;;;;;5091564;28;20481;-58
2022/03/03 09:57:16;;;;;;;33.80;22.25;;;10.60;99.90;;;;;;5091355;28;20512;-58
2022/03/03 09:59:45;;;;;;;31.73;23.02;;;10.60;99.90;;;;;;5091424;28;20036;-58
2022/03/03 10:02:11;;;;;;;33.67;21.38;;;10.80;99.90;;;;;;5093629;28;20489;-58
2022/03/03 10:04:37;;;;;;;29.63;21.05;;;10.60;99.90;;;;;;5095305;28;20115;-58
2022/03/03 10:07:07;;;;;;;25.27;18.90;;;10.80;99.90;;;;;;5095132;28;20123;-58
2022/03/03 10:09:59;;;;;;;26.73;19.20;;;10.50;99.10;;;;;;5095278;28;20044;-58
2022/03/03 10:12:23;;;;;;;24.63;17.42;;;10.60;99.90;;;;;;5095128;28;20124;-58
2022/03/03 10:14:49;;;;;;;24.55;18.05;;;10.50;99.00;;;;;;5095288;28;20048;-58
2022/03/03 10:17:16;;;;;;;24.30;17.85;;;10.50;98.70;;;;;;5095387;28;20127;-59
2022/03/03 10:19:56;;;;;;;24.75;17.90;;;10.70;97.70;;;;;;5094779;28;20055;-60
2022/03/03 10:22:45;;;;;;;;;;;10.40;98.00;;;;;;5095520;28;20050;-59
2022/03/03 10:25:14;;;;;;;24.92;17.23;;;10.50;96.80;;;;;;5032636;28;20295;-59
2022/03/03 10:27:40;;;;;;;30.42;19.00;;;10.70;98.40;;;;;;5032636;28;20060;-59
2022/03/03 10:30:08;;;;;;;24.77;17.73;;;11.00;98.70;;;;;;5032455;28;20050;-59
2022/03/03 10:32:36;;;;;;;28.30;18.48;;;10.80;97.60;;;;;;5032495;28;20041;-59
2022/03/03 10:35:24;;;;;;;24.65;18.17;;;11.00;98.30;;;;;;5016362;28;20053;-59
2022/03/03 10:37:50;;;;;;;25.85;18.27;;;11.10;97.00;;;;;;5032382;28;20459;-59
2022/03/03 10:40:17;;;;;;;24.02;17.83;;;11.10;97.20;;;;;;5032486;28;20119;-59
2022/03/03 10:42:48;;;;;;;26.45;18.75;;;11.10;96.20;;;;;;5032281;28;20052;-59
2022/03/03 10:45:19;;;;;;;24.40;18.60;;;11.10;96.50;;;;;;5032262;28;20535;-59
2022/03/03 10:48:06;;;;;;;24.17;19.52;;;11.30;97.20;;;;;;5032204;28;20049;-59
2022/03/03 10:50:45;;;;;;;26.38;18.65;;;11.40;98.80;;;;;;5032189;28;20053;-58
2022/03/03 10:53:11;;;;;;;23.35;17.63;;;11.40;97.90;;;;;;5032082;28;20503;-59
2022/03/03 10:55:37;;;;;;;25.73;19.40;;;11.60;98.20;;;;;;5031921;28;20096;-58
2022/03/03 10:58:03;;;;;;;27.88;19.73;;;11.50;98.80;;;;;;5032113;28;20049;-59
2022/03/03 11:00:30;;;;;;;24.50;17.98;;;11.70;99.50;;;;;;5031818;28;20725;-59
2022/03/03 11:03:01;;;;;;;25.45;17.90;;;11.60;98.00;;;;;;5083172;28;20112;-58
2022/03/03 11:05:30;;;;;;;29.17;18.48;;;11.50;99.20;;;;;;5094326;28;20036;-59
2022/03/03 11:07:56;;;;;;;26.40;17.27;;;11.50;99.20;;;;;;5094142;28;20509;-57
2022/03/03 11:10:30;;;;;;;22.80;17.55;;;11.70;98.40;;;;;;5094024;28;20048;-57
2022/03/03 11:12:56;;;;;;;21.92;16.42;;;11.50;95.80;;;;;;5093720;28;20040;-57
2022/03/03 11:15:24;;;;;;;22.30;16.30;;;11.70;97.00;;;;;;5094038;28;20081;-58
2022/03/03 11:17:52;;;;;;;24.50;18.15;;;11.80;97.40;;;;;;5094259;28;20533;-58
2022/03/03 11:20:19;;;;;;;24.60;17.75;;;11.90;97.10;;;;;;5093708;28;20444;-57
2022/03/03 11:22:46;;;;;;;24.70;17.75;;;11.90;98.20;;;;;;5093769;28;20486;-58
2022/03/03 11:25:16;;;;;;;22.73;17.73;;;12.10;97.20;;;;;;5093706;28;20398;-58
2022/03/03 11:27:44;;;;;;;23.60;17.50;;;12.00;97.70;;;;;;5093872;28;20389;-57
2022/03/03 11:30:11;;;;;;;22.17;16.40;;;12.30;98.10;;;;;;5093968;28;20039;-58
2022/03/03 11:32:37;;;;;;;23.45;17.83;;;12.20;97.60;;;;;;5093978;28;20502;-57
2022/03/03 11:35:26;;;;;;;26.75;18.90;;;12.40;97.20;;;;;;5093521;28;20117;-58
2022/03/03 11:37:52;;;;;;;26.80;19.02;;;12.50;97.40;;;;;;5094161;28;20119;-57
2022/03/03 11:40:18;;;;;;;29.67;18.95;;;12.40;98.10;;;;;;5093445;28;20154;-57
2022/03/03 11:42:53;;;;;;;30.60;19.90;;;12.30;98.40;;;;;;5093562;28;20040;-57
2022/03/03 11:45:47;;;;;;;27.95;18.95;;;12.10;98.10;;;;;;5093304;28;20461;-58
2022/03/03 11:48:20;;;;;;;26.40;18.77;;;12.20;97.70;;;;;;5093401;28;20397;-58
2022/03/03 11:50:46;;;;;;;27.42;19.13;;;12.20;98.10;;;;;;5093483;28;20052;-58
2022/03/03 11:53:12;;;;;;;26.67;18.13;;;12.10;97.40;;;;;;5093254;28;20040;-58
2022/03/03 11:55:37;;;;;;;22.27;17.40;;;12.40;98.10;;;;;;5093274;28;20040;-58
2022/03/03 11:58:10;;;;;;;23.35;17.52;;;12.50;97.00;;;;;;5093019;28;20040;-58
2022/03/03 12:00:41;;;;;;;32.65;18.45;;;12.60;97.10;;;;;;5092954;28;20497;-58
2022/03/03 12:03:09;;;;;;;25.42;17.00;;;12.70;97.80;;;;;;5093306;28;20036;-58
2022/03/03 12:05:40;;;;;;;22.75;16.85;;;12.90;97.60;;;;;;5093065;28;20039;-58
2022/03/03 12:08:29;;;;;;;23.38;17.42;;;13.00;96.60;;;;;;5093353;28;20035;-58
2022/03/03 12:11:04;;;;;;;24.48;16.05;;;13.10;95.80;;;;;;5093104;28;20044;-58
2022/03/03 12:13:39;;;;;;;24.38;17.10;;;13.20;95.50;;;;;;5093127;28;20390;-58
2022/03/03 12:16:13;;;;;;;19.85;15.98;;;13.10;94.60;;;;;;5092644;28;20046;-59
2022/03/03 12:18:39;;;;;;;22.67;16.90;;;13.20;95.00;;;;;;5092813;28;20435;-58
2022/03/03 12:21:30;;;;;;;23.80;15.57;;;13.10;95.30;;;;;;5092383;28;20052;-59
2022/03/03 12:24:32;;;;;;;;;;;13.10;94.10;;;;;;5091096;28;20051;-58
2022/03/03 12:27:00;;;;;;;24.98;17.33;;;13.20;94.90;;;;;;5092688;28;20297;-59
2022/03/03 12:29:45;;;;;;;22.45;18.48;;;13.50;95.50;;;;;;5092464;28;20039;-57
2022/03/03 12:32:42;;;;;;;29.58;16.58;;;13.40;95.10;;;;;;5091236;28;20083;-58
2022/03/03 12:35:28;;;;;;;19.35;16.33;;;13.60;95.90;;;;;;5092532;28;20040;-58
2022/03/03 12:37:58;;;;;;;21.58;16.70;;;13.70;94.20;;;;;;5092402;28;20493;-58
2022/03/03 12:40:25;;;;;;;22.92;16.58;;;13.70;95.50;;;;;;5092356;28;20083;-58
2022/03/03 12:42:52;;;;;;;21.77;14.57;;;13.60;94.70;;;;;;5092507;28;20040;-59
2022/03/03 12:45:21;;;;;;;17.73;13.55;;;13.60;92.40;;;;;;5092460;28;20043;-58